KASH/ASH METAR and TAF weather

Enter ICAO airport designator
Station Type Date Time Source
KASH METAR 2020/08/11 00:56 UTC NOAA

KASH 110056Z VRB03KT 10SM SCT060 28/22 A2993 RMK AO2 LTG DSNT SW SLP139 T02830222


Station Type Date Time Source
KASH Decoded METAR 2020/08/11 00:56 UTC NOAA

Nashua, Boire Field Airport, NH, United States (KASH) 42-46-54N 071-30-53W
Aug 10, 2020 - 08:56 PM EDT / 2020.08.11 0056 UTC
Wind: Variable at 3 MPH (3 KT):0
Visibility: 10 mile(s):0
Sky conditions: partly cloudy
Weather: Lightning observed
Temperature: 82.9 F (28.3 C)
Dew Point: 72.0 F (22.2 C)
Relative Humidity: 69%
Pressure (altimeter): 29.93 in. Hg (1013 hPa)
ob: KASH 110056Z VRB03KT 10SM SCT060 28/22 A2993 RMK AO2 LTG DSNT SW SLP139 T02830222
cycle: 1

Station Type Date Time Source
KASH TAF UTC NOAA

Error!

Example: see airport list